This is the latest recevied weather packets stored in our database for station/object KC3WWU. If no packets are shown the sender has not sent any weather packets the latest 10 day(s).
| Time | Temp. | Humidity | Pressure | Rain* | Wind** | Luminosity | Snow |
|---|---|---|---|---|---|---|---|
| 1778180546 | 12.78° C | 49% | 1007.7 hPa | 0 mm | - | 793 W/m² | - |
| 1778180244 | 13.33° C | 49% | 1007.7 hPa | 0 mm | - | 236 W/m² | - |
| 1778179940 | 13.89° C | 49% | 1007.7 hPa | 0 mm | - | 236 W/m² | - |
| 1778179638 | 13.89° C | 50% | 1007.8 hPa | 0 mm | - | 303 W/m² | - |
| 1778179336 | 13.89° C | 49% | 1007.8 hPa | 0 mm | - | 336 W/m² | - |
| 1778179032 | 14.44° C | 50% | 1007.9 hPa | 0 mm | - | 838 W/m² | - |
| 1778178729 | 13.89° C | 48% | 1007.9 hPa | 0 mm | - | 846 W/m² | - |
| 1778178426 | 13.89° C | 47% | 1007.8 hPa | 0 mm | - | 828 W/m² | - |
| 1778178121 | 14.44° C | 46% | 1007.9 hPa | 0 mm | - | 852 W/m² | - |
| 1778177818 | 13.89° C | 48% | 1008 hPa | 0 mm | - | 831 W/m² | - |
| 1778177515 | 13.33° C | 48% | 1008.1 hPa | 0 mm | - | 814 W/m² | - |
| 1778177210 | 12.22° C | 54% | 1008 hPa | 0 mm | - | 470 W/m² | - |
| 1778176908 | 12.22° C | 51% | 1007.9 hPa | 0 mm | - | 525 W/m² | - |
| 1778176604 | 11.67° C | 54% | 1008.2 hPa | 0 mm | - | 217 W/m² | - |
| 1778176301 | 12.78° C | 51% | 1008.1 hPa | 0 mm | - | 151 W/m² | - |
| 1778175998 | 13.33° C | 50% | 1008.2 hPa | 0 mm | - | 261 W/m² | - |
| 1778175696 | 12.78° C | 49% | 1008.5 hPa | 0 mm | - | 947 W/m² | - |
| 1778175393 | 13.89° C | 48% | 1008.6 hPa | 0 mm | - | 623 W/m² | - |
| 1778175090 | 13.33° C | 52% | 1008.6 hPa | 0 mm | - | 864 W/m² | - |
| 1778174786 | 12.78° C | 51% | 1008.6 hPa | 0 mm | - | 874 W/m² | - |
| 1778174483 | 12.78° C | 53% | 1008.8 hPa | 0 mm | - | 188 W/m² | - |
| 1778174178 | 12.22° C | 54% | 1008.8 hPa | 0 mm | - | 598 W/m² | - |
| 1778173875 | 13.33° C | 48% | 1008.8 hPa | 0 mm | - | 251 W/m² | - |
| 1778173572 | 11.67° C | 52% | 1009.1 hPa | 0 mm | - | 913 W/m² | - |
| 1778173269 | 12.22° C | 50% | 1008.9 hPa | 0 mm | - | 324 W/m² | - |
* Rain latest hour (hover to see other rain measurements)
** Current wind speed in m/s (hover to see current wind gust speed)